Airport Name : Campia Turzii

Other Name : Campia Turzii

ICAO : LRCT

IATA :

FAA :

Latitude : 46.502281

Longitude : 23.885914

Country : Romania

Local Date and Time : 10/23/2018 10:07:00 AM

 

TAF (Terminal Aerodrome Forecast)

TAF LRCT 230500Z 2306/2406 20004KT 5000 BR BKN010 OVC025 TEMPO 2306/2308 VRB03KT 1000 RA BR BKN002 OVC015 BECMG 2309/2311 24010KT 9999 SCT025 BKN070 PROB40 TEMPO 2312/2316 27005G15KT 6000 SHRA SCT030CB BKN060 BECMG 2317/2319 28012KT BKN050 OVC080

 

METAR (METeorological Aerodrome Report)

LRCT 230700Z 07003KT 3000 -RA BR BKN002 OVC014 11/10 Q1021 AMB AMB

LRCT 230600Z 03004KT 3000 BR BKN002 OVC014 11/10 Q1021 AMB AMB

LRCT 230500Z 18004KT 3000 BR BKN002 OVC014 11/10 Q1021 AMB AMB

LRCT 230400Z VRB02KT 5000 -RA BR BKN002 OVC012 11/10 Q1021 AMB AMB